ホワイトホース の空港の天気 - METARとTAF

ホワイトホース国際空港 ( CYXY / YXY ) - カナダ ユーコン準州ホワイトホース
飛行場実況気象(Metar)
観測時間12/09 21:00 PST (12/10 05:00 UTC)
風向・風速南南東 7m/s 瞬間風速9m/s
視程10km以上
天気現象
少しの雲 雲底高度 300m
全天の4割程度の雲 雲底高度 1620m
全天の8割程度の雲 雲底高度 4570m
気温0℃
湿度86%
気圧989.4hPa
METARCYXY 100500Z 16013G18KT 15SM FEW010 SCT053 BKN150 00/M02 A2912 RMK ST1SC3AC1 SLP894
過去の天気等 Google飛行場航空写真 Wunderground天気予報

過去48時間のMETAR

飛行場予報(TAF)
発表時間: 12/09 15:38 PST (12/09 23:38 UTC)
予報対象時間: 9日16時 PST ~ 10日4時 PST
風向・風速南 6m/s 瞬間風速 11m/s
視程10km以上
全天の4割程度の雲 雲底高度 1220m
全天の8割程度の雲 雲底高度 2440m
9日16時 PST ~ 9日19時 PST に一時的に
視程10km以上
天気現象弱い雪
全天の8割程度の雲 雲底高度 1220m
9日19時 PST から
風向・風速南 6m/s
視程10km以上
少しの雲 雲底高度 1220m
全天の4割程度の雲 雲底高度 2440m
9日19時 PST ~ 10日4時 PST に一時的に
全天の4割程度の雲 雲底高度 1220m
全天の8割程度の雲 雲底高度 2440m
TAF CYXY 092338Z 1000/1012 17012G22KT P6SM SCT040 BKN080
TEMPO 1000/1003 6SM -SN BKN040
FM100300 17012KT P6SM FEW040 SCT080
TEMPO 1003/1012 SCT040 BKN080 RMK NXT FCST BY 100600Z